sensor_id;sensor_type;location;lat;lon;timestamp;temperature;humidity
51595;DHT22;37677;53.254;6.594;2023-03-23T00:01:15;10.70;99.90
51595;DHT22;37677;53.254;6.594;2023-03-23T00:03:52;10.60;99.90
51595;DHT22;37677;53.254;6.594;2023-03-23T00:06:19;10.70;99.90
51595;DHT22;37677;53.254;6.594;2023-03-23T00:08:50;10.70;99.90
51595;DHT22;37677;53.254;6.594;2023-03-23T00:11:21;10.80;99.90
51595;DHT22;37677;53.254;6.594;2023-03-23T00:13:48;10.60;99.90
51595;DHT22;37677;53.254;6.594;2023-03-23T00:16:19;11.20;99.90
51595;DHT22;37677;53.254;6.594;2023-03-23T00:18:51;10.80;99.90
51595;DHT22;37677;53.254;6.594;2023-03-23T00:21:21;11.30;99.90
51595;DHT22;37677;53.254;6.594;2023-03-23T00:23:53;10.50;99.90
51595;DHT22;37677;53.254;6.594;2023-03-23T00:26:19;11.00;99.90
51595;DHT22;37677;53.254;6.594;2023-03-23T00:28:44;11.30;99.90
51595;DHT22;37677;53.254;6.594;2023-03-23T00:31:12;10.30;99.90
51595;DHT22;37677;53.254;6.594;2023-03-23T00:33:39;10.60;99.90
51595;DHT22;37677;53.254;6.594;2023-03-23T00:36:10;10.60;99.90
51595;DHT22;37677;53.254;6.594;2023-03-23T00:38:37;10.40;99.90
51595;DHT22;37677;53.254;6.594;2023-03-23T00:41:04;10.70;99.90
51595;DHT22;37677;53.254;6.594;2023-03-23T00:43:31;10.50;99.90
51595;DHT22;37677;53.254;6.594;2023-03-23T00:45:57;10.60;99.90
51595;DHT22;37677;53.254;6.594;2023-03-23T00:48:27;10.60;99.90
51595;DHT22;37677;53.254;6.594;2023-03-23T00:50:53;10.70;99.90
51595;DHT22;37677;53.254;6.594;2023-03-23T00:53:19;10.60;99.90
51595;DHT22;37677;53.254;6.594;2023-03-23T00:55:46;11.40;99.90
51595;DHT22;37677;53.254;6.594;2023-03-23T00:58:13;10.70;99.90
51595;DHT22;37677;53.254;6.594;2023-03-23T01:00:39;10.90;99.90
51595;DHT22;37677;53.254;6.594;2023-03-23T01:03:06;10.70;99.90
51595;DHT22;37677;53.254;6.594;2023-03-23T01:05:35;10.60;99.90
51595;DHT22;37677;53.254;6.594;2023-03-23T01:08:03;10.70;99.90
51595;DHT22;37677;53.254;6.594;2023-03-23T01:10:29;11.00;99.90
51595;DHT22;37677;53.254;6.594;2023-03-23T01:12:59;11.10;99.90
51595;DHT22;37677;53.254;6.594;2023-03-23T01:15:27;11.10;99.90
51595;DHT22;37677;53.254;6.594;2023-03-23T01:17:56;10.90;99.90
51595;DHT22;37677;53.254;6.594;2023-03-23T01:20:22;11.70;99.90
51595;DHT22;37677;53.254;6.594;2023-03-23T01:22:48;11.00;99.90
51595;DHT22;37677;53.254;6.594;2023-03-23T01:25:14;10.90;99.90
51595;DHT22;37677;53.254;6.594;2023-03-23T01:27:40;10.80;99.90
51595;DHT22;37677;53.254;6.594;2023-03-23T01:30:08;10.70;95.20
51595;DHT22;37677;53.254;6.594;2023-03-23T01:32:36;10.70;97.60
51595;DHT22;37677;53.254;6.594;2023-03-23T01:35:01;10.70;94.10
51595;DHT22;37677;53.254;6.594;2023-03-23T01:37:27;10.70;91.50
51595;DHT22;37677;53.254;6.594;2023-03-23T01:39:54;10.60;90.30
51595;DHT22;37677;53.254;6.594;2023-03-23T01:42:24;10.60;90.70
51595;DHT22;37677;53.254;6.594;2023-03-23T01:47:18;10.60;91.80
51595;DHT22;37677;53.254;6.594;2023-03-23T01:49:48;10.70;92.80
51595;DHT22;37677;53.254;6.594;2023-03-23T01:52:24;10.60;93.40
51595;DHT22;37677;53.254;6.594;2023-03-23T01:54:52;10.70;94.40
51595;DHT22;37677;53.254;6.594;2023-03-23T01:57:22;10.90;95.10
51595;DHT22;37677;53.254;6.594;2023-03-23T01:59:50;10.80;95.40
51595;DHT22;37677;53.254;6.594;2023-03-23T02:02:20;10.90;95.80
51595;DHT22;37677;53.254;6.594;2023-03-23T02:04:46;10.80;95.90
51595;DHT22;37677;53.254;6.594;2023-03-23T02:07:14;10.90;95.90
51595;DHT22;37677;53.254;6.594;2023-03-23T02:09:40;11.20;96.10
51595;DHT22;37677;53.254;6.594;2023-03-23T02:12:06;10.80;96.00
51595;DHT22;37677;53.254;6.594;2023-03-23T02:14:32;9.40;93.10
51595;DHT22;37677;53.254;6.594;2023-03-23T02:17:30;10.90;95.60
51595;DHT22;37677;53.254;6.594;2023-03-23T02:23:07;11.00;95.80
51595;DHT22;37677;53.254;6.594;2023-03-23T02:31:45;10.90;95.30
51595;DHT22;37677;53.254;6.594;2023-03-23T02:34:28;11.10;94.90
51595;DHT22;37677;53.254;6.594;2023-03-23T02:37:06;11.10;94.40
51595;DHT22;37677;53.254;6.594;2023-03-23T02:39:43;11.40;93.90
51595;DHT22;37677;53.254;6.594;2023-03-23T02:42:13;11.10;92.80
51595;DHT22;37677;53.254;6.594;2023-03-23T02:44:43;11.30;91.00
51595;DHT22;37677;53.254;6.594;2023-03-23T02:47:22;11.20;91.40
51595;DHT22;37677;53.254;6.594;2023-03-23T02:49:51;11.10;89.00
51595;DHT22;37677;53.254;6.594;2023-03-23T02:52:23;11.20;86.50
51595;DHT22;37677;53.254;6.594;2023-03-23T02:54:51;11.20;88.40
51595;DHT22;37677;53.254;6.594;2023-03-23T02:57:18;11.20;87.80
51595;DHT22;37677;53.254;6.594;2023-03-23T02:59:45;11.40;84.70
51595;DHT22;37677;53.254;6.594;2023-03-23T03:02:24;11.30;85.60
51595;DHT22;37677;53.254;6.594;2023-03-23T03:05:01;11.30;80.10
51595;DHT22;37677;53.254;6.594;2023-03-23T03:10:37;11.30;79.40
51595;DHT22;37677;53.254;6.594;2023-03-23T03:15:57;11.60;77.10
51595;DHT22;37677;53.254;6.594;2023-03-23T03:18:44;11.30;77.60
51595;DHT22;37677;53.254;6.594;2023-03-23T03:21:14;11.20;76.40
51595;DHT22;37677;53.254;6.594;2023-03-23T03:23:43;11.40;78.10
51595;DHT22;37677;53.254;6.594;2023-03-23T03:26:12;11.40;77.00
51595;DHT22;37677;53.254;6.594;2023-03-23T03:28:38;12.00;75.80
51595;DHT22;37677;53.254;6.594;2023-03-23T03:31:05;11.20;75.70
51595;DHT22;37677;53.254;6.594;2023-03-23T03:33:32;11.20;76.50
51595;DHT22;37677;53.254;6.594;2023-03-23T03:36:03;11.20;75.30
51595;DHT22;37677;53.254;6.594;2023-03-23T03:38:45;11.20;72.00
51595;DHT22;37677;53.254;6.594;2023-03-23T03:41:11;11.20;72.70
51595;DHT22;37677;53.254;6.594;2023-03-23T03:43:36;11.50;74.10
51595;DHT22;37677;53.254;6.594;2023-03-23T03:46:02;11.30;68.80
51595;DHT22;37677;53.254;6.594;2023-03-23T03:48:28;11.40;70.50
51595;DHT22;37677;53.254;6.594;2023-03-23T03:50:54;11.30;71.20
51595;DHT22;37677;53.254;6.594;2023-03-23T03:53:22;11.20;69.00
51595;DHT22;37677;53.254;6.594;2023-03-23T03:55:49;12.10;70.30
51595;DHT22;37677;53.254;6.594;2023-03-23T03:58:15;11.60;73.50
51595;DHT22;37677;53.254;6.594;2023-03-23T04:00:42;11.80;78.00
51595;DHT22;37677;53.254;6.594;2023-03-23T04:03:08;11.20;79.30
51595;DHT22;37677;53.254;6.594;2023-03-23T04:05:35;11.90;84.40
51595;DHT22;37677;53.254;6.594;2023-03-23T04:08:03;11.10;85.20
51595;DHT22;37677;53.254;6.594;2023-03-23T04:10:30;11.10;84.60
51595;DHT22;37677;53.254;6.594;2023-03-23T04:12:58;11.20;85.90
51595;DHT22;37677;53.254;6.594;2023-03-23T04:15:25;11.00;88.80
51595;DHT22;37677;53.254;6.594;2023-03-23T04:17:51;10.80;90.10
51595;DHT22;37677;53.254;6.594;2023-03-23T04:20:18;10.80;89.50
51595;DHT22;37677;53.254;6.594;2023-03-23T04:22:47;11.60;89.30
51595;DHT22;37677;53.254;6.594;2023-03-23T04:25:18;10.80;90.10
51595;DHT22;37677;53.254;6.594;2023-03-23T04:27:47;10.70;92.00
51595;DHT22;37677;53.254;6.594;2023-03-23T04:30:19;10.60;85.90
51595;DHT22;37677;53.254;6.594;2023-03-23T04:32:45;10.70;88.30
51595;DHT22;37677;53.254;6.594;2023-03-23T04:35:13;11.10;90.90
51595;DHT22;37677;53.254;6.594;2023-03-23T04:37:40;10.60;93.90
51595;DHT22;37677;53.254;6.594;2023-03-23T04:40:07;10.70;95.60
51595;DHT22;37677;53.254;6.594;2023-03-23T04:42:37;10.30;77.60
51595;DHT22;37677;53.254;6.594;2023-03-23T04:45:05;9.90;71.20
51595;DHT22;37677;53.254;6.594;2023-03-23T04:47:34;10.40;75.90
51595;DHT22;37677;53.254;6.594;2023-03-23T04:50:06;10.20;66.30
51595;DHT22;37677;53.254;6.594;2023-03-23T04:52:33;10.50;77.10
51595;DHT22;37677;53.254;6.594;2023-03-23T04:54:59;10.60;81.90
51595;DHT22;37677;53.254;6.594;2023-03-23T04:57:24;10.60;84.70
51595;DHT22;37677;53.254;6.594;2023-03-23T04:59:53;11.50;80.10
51595;DHT22;37677;53.254;6.594;2023-03-23T05:02:19;10.50;83.50
51595;DHT22;37677;53.254;6.594;2023-03-23T05:04:45;9.90;68.70
51595;DHT22;37677;53.254;6.594;2023-03-23T05:07:11;10.50;75.50
51595;DHT22;37677;53.254;6.594;2023-03-23T05:09:37;10.60;80.20
51595;DHT22;37677;53.254;6.594;2023-03-23T05:12:05;10.60;73.30
51595;DHT22;37677;53.254;6.594;2023-03-23T05:14:31;10.50;67.40
51595;DHT22;37677;53.254;6.594;2023-03-23T05:16:56;11.00;72.10
51595;DHT22;37677;53.254;6.594;2023-03-23T05:19:22;10.50;89.90
51595;DHT22;37677;53.254;6.594;2023-03-23T05:21:47;10.60;71.10
51595;DHT22;37677;53.254;6.594;2023-03-23T05:24:13;10.40;74.30
51595;DHT22;37677;53.254;6.594;2023-03-23T05:26:39;10.60;72.40
51595;DHT22;37677;53.254;6.594;2023-03-23T05:29:04;10.50;73.10
51595;DHT22;37677;53.254;6.594;2023-03-23T05:31:30;10.60;78.00
51595;DHT22;37677;53.254;6.594;2023-03-23T05:33:56;10.60;79.60
51595;DHT22;37677;53.254;6.594;2023-03-23T05:36:22;10.60;80.50
51595;DHT22;37677;53.254;6.594;2023-03-23T05:38:50;10.50;79.00
51595;DHT22;37677;53.254;6.594;2023-03-23T05:41:16;10.70;79.40
51595;DHT22;37677;53.254;6.594;2023-03-23T05:43:42;10.60;78.90
51595;DHT22;37677;53.254;6.594;2023-03-23T05:46:08;10.80;79.80
51595;DHT22;37677;53.254;6.594;2023-03-23T05:48:34;10.70;74.50
51595;DHT22;37677;53.254;6.594;2023-03-23T05:51:00;10.90;74.70
51595;DHT22;37677;53.254;6.594;2023-03-23T05:53:26;10.90;74.90
51595;DHT22;37677;53.254;6.594;2023-03-23T05:55:52;10.80;72.90
51595;DHT22;37677;53.254;6.594;2023-03-23T05:58:18;10.70;71.20
51595;DHT22;37677;53.254;6.594;2023-03-23T06:00:44;11.00;72.50
51595;DHT22;37677;53.254;6.594;2023-03-23T06:03:12;10.80;64.00
51595;DHT22;37677;53.254;6.594;2023-03-23T06:05:42;10.70;62.90
51595;DHT22;37677;53.254;6.594;2023-03-23T06:08:09;10.70;63.70
51595;DHT22;37677;53.254;6.594;2023-03-23T06:10:35;11.00;69.50
51595;DHT22;37677;53.254;6.594;2023-03-23T06:13:02;10.90;62.60
51595;DHT22;37677;53.254;6.594;2023-03-23T06:15:28;10.80;61.20
51595;DHT22;37677;53.254;6.594;2023-03-23T06:17:58;11.00;67.70
51595;DHT22;37677;53.254;6.594;2023-03-23T06:20:24;10.80;70.20
51595;DHT22;37677;53.254;6.594;2023-03-23T06:22:50;10.90;58.40
51595;DHT22;37677;53.254;6.594;2023-03-23T06:25:18;10.70;60.80
51595;DHT22;37677;53.254;6.594;2023-03-23T06:27:44;10.90;60.40
51595;DHT22;37677;53.254;6.594;2023-03-23T06:30:12;10.90;55.10
51595;DHT22;37677;53.254;6.594;2023-03-23T06:32:40;10.90;55.90
51595;DHT22;37677;53.254;6.594;2023-03-23T06:35:08;10.90;62.70
51595;DHT22;37677;53.254;6.594;2023-03-23T06:37:35;10.70;59.60
51595;DHT22;37677;53.254;6.594;2023-03-23T06:40:02;10.80;57.80
51595;DHT22;37677;53.254;6.594;2023-03-23T06:42:31;10.90;58.50
51595;DHT22;37677;53.254;6.594;2023-03-23T06:44:58;11.00;55.00
51595;DHT22;37677;53.254;6.594;2023-03-23T06:47:26;10.80;45.80
51595;DHT22;37677;53.254;6.594;2023-03-23T06:49:55;10.80;26.40
51595;DHT22;37677;53.254;6.594;2023-03-23T06:52:22;10.70;17.20
51595;DHT22;37677;53.254;6.594;2023-03-23T06:54:49;11.20;21.60
51595;DHT22;37677;53.254;6.594;2023-03-23T06:57:15;10.70;37.00
51595;DHT22;37677;53.254;6.594;2023-03-23T06:59:41;10.60;17.90
51595;DHT22;37677;53.254;6.594;2023-03-23T07:02:11;10.60;7.10
51595;DHT22;37677;53.254;6.594;2023-03-23T07:04:38;10.90;11.10
51595;DHT22;37677;53.254;6.594;2023-03-23T07:07:05;10.80;6.30
51595;DHT22;37677;53.254;6.594;2023-03-23T07:09:31;10.70;1.00
51595;DHT22;37677;53.254;6.594;2023-03-23T07:11:57;10.80;1.00
51595;DHT22;37677;53.254;6.594;2023-03-23T07:14:23;10.90;1.00
51595;DHT22;37677;53.254;6.594;2023-03-23T07:16:49;11.00;1.00
51595;DHT22;37677;53.254;6.594;2023-03-23T07:19:15;11.10;1.00
51595;DHT22;37677;53.254;6.594;2023-03-23T07:21:41;11.30;1.00
51595;DHT22;37677;53.254;6.594;2023-03-23T07:24:13;11.10;1.00
51595;DHT22;37677;53.254;6.594;2023-03-23T07:26:40;11.00;1.00
51595;DHT22;37677;53.254;6.594;2023-03-23T07:29:08;11.00;1.00
51595;DHT22;37677;53.254;6.594;2023-03-23T07:31:34;11.30;9.50
51595;DHT22;37677;53.254;6.594;2023-03-23T07:34:00;10.90;15.50
51595;DHT22;37677;53.254;6.594;2023-03-23T07:36:27;11.00;17.30
51595;DHT22;37677;53.254;6.594;2023-03-23T07:38:53;10.80;23.10
51595;DHT22;37677;53.254;6.594;2023-03-23T07:41:19;11.20;27.60
51595;DHT22;37677;53.254;6.594;2023-03-23T07:43:45;11.40;18.80
51595;DHT22;37677;53.254;6.594;2023-03-23T07:46:13;11.70;15.80
51595;DHT22;37677;53.254;6.594;2023-03-23T07:48:39;11.90;17.20
51595;DHT22;37677;53.254;6.594;2023-03-23T07:51:06;12.80;1.00
51595;DHT22;37677;53.254;6.594;2023-03-23T07:53:33;13.00;1.00
51595;DHT22;37677;53.254;6.594;2023-03-23T07:55:58;13.10;1.00
51595;DHT22;37677;53.254;6.594;2023-03-23T07:58:24;13.10;1.00
51595;DHT22;37677;53.254;6.594;2023-03-23T08:00:52;13.10;1.00
51595;DHT22;37677;53.254;6.594;2023-03-23T08:03:18;12.60;1.00
51595;DHT22;37677;53.254;6.594;2023-03-23T08:05:44;12.40;1.00
51595;DHT22;37677;53.254;6.594;2023-03-23T08:08:10;12.70;1.00
51595;DHT22;37677;53.254;6.594;2023-03-23T08:10:36;12.70;1.00
51595;DHT22;37677;53.254;6.594;2023-03-23T08:13:03;12.40;1.00
51595;DHT22;37677;53.254;6.594;2023-03-23T08:15:29;12.20;1.00
51595;DHT22;37677;53.254;6.594;2023-03-23T08:17:55;12.20;1.00
51595;DHT22;37677;53.254;6.594;2023-03-23T08:20:21;12.00;1.00
51595;DHT22;37677;53.254;6.594;2023-03-23T08:22:55;12.50;1.00
51595;DHT22;37677;53.254;6.594;2023-03-23T08:25:23;12.50;1.00
51595;DHT22;37677;53.254;6.594;2023-03-23T08:27:50;12.80;1.00
51595;DHT22;37677;53.254;6.594;2023-03-23T08:30:18;12.90;1.00
51595;DHT22;37677;53.254;6.594;2023-03-23T08:32:45;13.10;1.00
51595;DHT22;37677;53.254;6.594;2023-03-23T08:35:13;12.90;1.00
51595;DHT22;37677;53.254;6.594;2023-03-23T08:37:41;13.00;1.00
51595;DHT22;37677;53.254;6.594;2023-03-23T08:40:11;13.00;1.00
51595;DHT22;37677;53.254;6.594;2023-03-23T08:42:41;12.80;1.00
51595;DHT22;37677;53.254;6.594;2023-03-23T08:45:09;12.80;1.00
51595;DHT22;37677;53.254;6.594;2023-03-23T08:50:03;13.90;1.00
51595;DHT22;37677;53.254;6.594;2023-03-23T08:52:29;14.30;1.00
51595;DHT22;37677;53.254;6.594;2023-03-23T08:54:55;14.00;1.00
51595;DHT22;37677;53.254;6.594;2023-03-23T08:57:22;13.80;1.00
51595;DHT22;37677;53.254;6.594;2023-03-23T08:59:48;13.90;99.90
51595;DHT22;37677;53.254;6.594;2023-03-23T09:02:14;14.40;99.90
51595;DHT22;37677;53.254;6.594;2023-03-23T09:04:40;14.50;99.90
51595;DHT22;37677;53.254;6.594;2023-03-23T09:07:13;15.20;99.90
51595;DHT22;37677;53.254;6.594;2023-03-23T09:09:40;14.60;99.90
51595;DHT22;37677;53.254;6.594;2023-03-23T09:12:07;14.30;99.90
51595;DHT22;37677;53.254;6.594;2023-03-23T09:14:34;14.50;99.90
51595;DHT22;37677;53.254;6.594;2023-03-23T09:17:00;14.50;99.90
51595;DHT22;37677;53.254;6.594;2023-03-23T09:19:26;14.30;99.90
51595;DHT22;37677;53.254;6.594;2023-03-23T09:21:52;14.30;98.50
51595;DHT22;37677;53.254;6.594;2023-03-23T09:24:18;14.30;99.90
51595;DHT22;37677;53.254;6.594;2023-03-23T09:26:44;14.60;99.90
51595;DHT22;37677;53.254;6.594;2023-03-23T09:29:10;14.60;99.90
51595;DHT22;37677;53.254;6.594;2023-03-23T09:31:38;15.20;1.00
51595;DHT22;37677;53.254;6.594;2023-03-23T09:34:06;15.20;1.00
51595;DHT22;37677;53.254;6.594;2023-03-23T09:36:32;15.60;16.60
51595;DHT22;37677;53.254;6.594;2023-03-23T09:38:58;16.50;1.00
51595;DHT22;37677;53.254;6.594;2023-03-23T09:41:37;16.50;99.90
51595;DHT22;37677;53.254;6.594;2023-03-23T09:47:14;15.90;1.00
51595;DHT22;37677;53.254;6.594;2023-03-23T09:52:56;15.80;99.90
51595;DHT22;37677;53.254;6.594;2023-03-23T09:55:24;15.30;99.90
51595;DHT22;37677;53.254;6.594;2023-03-23T10:00:35;15.30;35.50
51595;DHT22;37677;53.254;6.594;2023-03-23T10:03:16;16.40;1.00
51595;DHT22;37677;53.254;6.594;2023-03-23T10:05:49;17.10;99.90
51595;DHT22;37677;53.254;6.594;2023-03-23T10:08:18;17.00;99.90
51595;DHT22;37677;53.254;6.594;2023-03-23T10:16:12;18.00;1.00
51595;DHT22;37677;53.254;6.594;2023-03-23T10:19:04;18.20;1.00
51595;DHT22;37677;53.254;6.594;2023-03-23T11:07:34;18.10;1.00
51595;DHT22;37677;53.254;6.594;2023-03-23T11:10:11;16.50;99.90
51595;DHT22;37677;53.254;6.594;2023-03-23T11:12:44;16.10;1.00
51595;DHT22;37677;53.254;6.594;2023-03-23T11:15:32;16.20;99.90
51595;DHT22;37677;53.254;6.594;2023-03-23T11:18:11;15.80;99.90
51595;DHT22;37677;53.254;6.594;2023-03-23T11:20:41;15.60;99.90
51595;DHT22;37677;53.254;6.594;2023-03-23T11:23:19;14.60;36.80
51595;DHT22;37677;53.254;6.594;2023-03-23T11:25:58;14.60;99.90
51595;DHT22;37677;53.254;6.594;2023-03-23T11:28:34;14.40;1.00
51595;DHT22;37677;53.254;6.594;2023-03-23T11:31:05;14.40;93.80
51595;DHT22;37677;53.254;6.594;2023-03-23T11:33:52;14.40;5.40
51595;DHT22;37677;53.254;6.594;2023-03-23T11:36:19;14.30;99.90
51595;DHT22;37677;53.254;6.594;2023-03-23T11:38:45;14.60;55.70
51595;DHT22;37677;53.254;6.594;2023-03-23T11:41:12;15.00;1.00
51595;DHT22;37677;53.254;6.594;2023-03-23T11:43:40;14.70;57.90
51595;DHT22;37677;53.254;6.594;2023-03-23T11:49:02;14.90;1.00
51595;DHT22;37677;53.254;6.594;2023-03-23T11:56:51;15.10;1.00
51595;DHT22;37677;53.254;6.594;2023-03-23T11:59:26;15.00;99.90
51595;DHT22;37677;53.254;6.594;2023-03-23T12:02:02;15.30;1.00
51595;DHT22;37677;53.254;6.594;2023-03-23T12:10:35;15.40;1.00
51595;DHT22;37677;53.254;6.594;2023-03-23T12:21:41;16.40;99.90
51595;DHT22;37677;53.254;6.594;2023-03-23T12:38:15;15.90;99.90
51595;DHT22;37677;53.254;6.594;2023-03-23T12:43:44;16.20;1.00
51595;DHT22;37677;53.254;6.594;2023-03-23T12:49:13;15.90;1.00
51595;DHT22;37677;53.254;6.594;2023-03-23T12:54:42;15.50;99.90
51595;DHT22;37677;53.254;6.594;2023-03-23T12:57:36;15.70;1.00
51595;DHT22;37677;53.254;6.594;2023-03-23T13:05:50;14.60;9.00
51595;DHT22;37677;53.254;6.594;2023-03-23T13:08:40;14.50;1.00
51595;DHT22;37677;53.254;6.594;2023-03-23T13:11:15;14.50;1.00
51595;DHT22;37677;53.254;6.594;2023-03-23T13:13:50;14.40;15.60
51595;DHT22;37677;53.254;6.594;2023-03-23T13:16:28;14.40;1.00
51595;DHT22;37677;53.254;6.594;2023-03-23T13:25:13;14.30;98.60
51595;DHT22;37677;53.254;6.594;2023-03-23T13:27:39;14.20;99.90
51595;DHT22;37677;53.254;6.594;2023-03-23T13:30:19;14.40;1.00
51595;DHT22;37677;53.254;6.594;2023-03-23T13:32:50;14.30;1.00
51595;DHT22;37677;53.254;6.594;2023-03-23T13:35:19;14.30;1.00
51595;DHT22;37677;53.254;6.594;2023-03-23T13:37:50;14.10;99.90
51595;DHT22;37677;53.254;6.594;2023-03-23T13:40:25;14.30;99.90
51595;DHT22;37677;53.254;6.594;2023-03-23T13:42:54;14.20;99.90
51595;DHT22;37677;53.254;6.594;2023-03-23T13:45:53;14.10;1.00
51595;DHT22;37677;53.254;6.594;2023-03-23T13:48:24;14.10;99.90
51595;DHT22;37677;53.254;6.594;2023-03-23T13:51:00;14.20;99.90
51595;DHT22;37677;53.254;6.594;2023-03-23T13:53:47;13.90;1.00
51595;DHT22;37677;53.254;6.594;2023-03-23T13:59:13;13.90;99.90
51595;DHT22;37677;53.254;6.594;2023-03-23T14:01:40;14.30;99.90
51595;DHT22;37677;53.254;6.594;2023-03-23T14:04:16;14.20;1.00
51595;DHT22;37677;53.254;6.594;2023-03-23T14:06:44;14.20;99.90
51595;DHT22;37677;53.254;6.594;2023-03-23T14:09:37;14.60;99.90
51595;DHT22;37677;53.254;6.594;2023-03-23T14:12:13;14.60;99.90
51595;DHT22;37677;53.254;6.594;2023-03-23T14:15:11;14.70;99.90
51595;DHT22;37677;53.254;6.594;2023-03-23T14:17:42;14.30;99.90
51595;DHT22;37677;53.254;6.594;2023-03-23T14:20:26;14.20;99.90
51595;DHT22;37677;53.254;6.594;2023-03-23T14:22:55;14.20;99.90
51595;DHT22;37677;53.254;6.594;2023-03-23T14:25:22;14.50;99.90
51595;DHT22;37677;53.254;6.594;2023-03-23T14:27:51;14.50;68.90
51595;DHT22;37677;53.254;6.594;2023-03-23T14:30:26;14.50;70.40
51595;DHT22;37677;53.254;6.594;2023-03-23T14:32:54;14.50;99.90
51595;DHT22;37677;53.254;6.594;2023-03-23T14:35:40;14.50;99.90
51595;DHT22;37677;53.254;6.594;2023-03-23T14:38:19;14.40;1.00
51595;DHT22;37677;53.254;6.594;2023-03-23T14:40:46;14.40;99.90
51595;DHT22;37677;53.254;6.594;2023-03-23T14:43:15;14.40;99.90
51595;DHT22;37677;53.254;6.594;2023-03-23T14:45:41;14.30;1.00
51595;DHT22;37677;53.254;6.594;2023-03-23T14:48:08;14.50;1.00
51595;DHT22;37677;53.254;6.594;2023-03-23T14:50:41;12.50;99.90
51595;DHT22;37677;53.254;6.594;2023-03-23T14:56:19;14.30;1.00
51595;DHT22;37677;53.254;6.594;2023-03-23T14:58:47;14.40;1.00
51595;DHT22;37677;53.254;6.594;2023-03-23T15:01:23;14.20;99.90
51595;DHT22;37677;53.254;6.594;2023-03-23T15:03:59;14.30;53.20
51595;DHT22;37677;53.254;6.594;2023-03-23T15:06:29;14.40;99.90
51595;DHT22;37677;53.254;6.594;2023-03-23T15:08:59;14.50;99.90
51595;DHT22;37677;53.254;6.594;2023-03-23T15:11:28;14.40;99.90
51595;DHT22;37677;53.254;6.594;2023-03-23T15:13:56;14.40;1.00
51595;DHT22;37677;53.254;6.594;2023-03-23T15:16:33;14.50;17.20
51595;DHT22;37677;53.254;6.594;2023-03-23T15:21:29;14.30;99.90
51595;DHT22;37677;53.254;6.594;2023-03-23T15:23:56;14.40;99.90
51595;DHT22;37677;53.254;6.594;2023-03-23T15:26:27;14.40;99.90
51595;DHT22;37677;53.254;6.594;2023-03-23T15:31:52;14.20;1.00
51595;DHT22;37677;53.254;6.594;2023-03-23T15:34:36;14.30;51.40
51595;DHT22;37677;53.254;6.594;2023-03-23T15:39:51;14.20;25.70
51595;DHT22;37677;53.254;6.594;2023-03-23T15:42:33;14.40;99.90
51595;DHT22;37677;53.254;6.594;2023-03-23T15:47:48;14.30;87.40
51595;DHT22;37677;53.254;6.594;2023-03-23T15:50:33;13.90;3.40
51595;DHT22;37677;53.254;6.594;2023-03-23T15:53:00;13.90;1.00
51595;DHT22;37677;53.254;6.594;2023-03-23T15:55:36;14.00;1.00
51595;DHT22;37677;53.254;6.594;2023-03-23T15:58:12;14.00;99.90
51595;DHT22;37677;53.254;6.594;2023-03-23T16:00:39;13.90;20.90
51595;DHT22;37677;53.254;6.594;2023-03-23T16:03:07;13.70;99.90
51595;DHT22;37677;53.254;6.594;2023-03-23T16:05:35;13.60;99.90
51595;DHT22;37677;53.254;6.594;2023-03-23T16:08:01;13.70;1.00
51595;DHT22;37677;53.254;6.594;2023-03-23T16:10:28;13.50;1.20
51595;DHT22;37677;53.254;6.594;2023-03-23T16:12:55;13.60;99.90
51595;DHT22;37677;53.254;6.594;2023-03-23T16:15:20;13.50;99.90
51595;DHT22;37677;53.254;6.594;2023-03-23T16:17:47;13.50;2.50
51595;DHT22;37677;53.254;6.594;2023-03-23T16:20:22;13.60;99.90
51595;DHT22;37677;53.254;6.594;2023-03-23T16:22:49;13.60;1.00
51595;DHT22;37677;53.254;6.594;2023-03-23T16:25:16;13.30;4.60
51595;DHT22;37677;53.254;6.594;2023-03-23T16:27:43;13.60;1.00
51595;DHT22;37677;53.254;6.594;2023-03-23T16:32:42;13.30;80.80
51595;DHT22;37677;53.254;6.594;2023-03-23T16:35:08;13.50;99.90
51595;DHT22;37677;53.254;6.594;2023-03-23T16:37:35;13.30;99.90
51595;DHT22;37677;53.254;6.594;2023-03-23T16:40:01;13.50;15.50
51595;DHT22;37677;53.254;6.594;2023-03-23T16:42:27;13.40;99.90
51595;DHT22;37677;53.254;6.594;2023-03-23T16:44:53;13.40;99.90
51595;DHT22;37677;53.254;6.594;2023-03-23T16:47:19;13.40;6.50
51595;DHT22;37677;53.254;6.594;2023-03-23T16:49:48;13.30;1.00
51595;DHT22;37677;53.254;6.594;2023-03-23T16:52:15;13.30;1.00
51595;DHT22;37677;53.254;6.594;2023-03-23T16:54:40;13.20;1.00
51595;DHT22;37677;53.254;6.594;2023-03-23T16:57:06;13.40;1.00
51595;DHT22;37677;53.254;6.594;2023-03-23T16:59:32;13.30;99.90
51595;DHT22;37677;53.254;6.594;2023-03-23T17:01:57;13.20;99.90
51595;DHT22;37677;53.254;6.594;2023-03-23T17:04:28;13.30;99.90
51595;DHT22;37677;53.254;6.594;2023-03-23T17:06:54;13.40;99.90
51595;DHT22;37677;53.254;6.594;2023-03-23T17:09:20;13.30;99.90
51595;DHT22;37677;53.254;6.594;2023-03-23T17:11:45;13.10;94.90
51595;DHT22;37677;53.254;6.594;2023-03-23T17:14:11;13.20;99.90
51595;DHT22;37677;53.254;6.594;2023-03-23T17:16:37;13.10;99.90
51595;DHT22;37677;53.254;6.594;2023-03-23T17:19:03;13.10;1.00
51595;DHT22;37677;53.254;6.594;2023-03-23T17:21:28;13.40;13.70
51595;DHT22;37677;53.254;6.594;2023-03-23T17:23:54;12.30;99.90
51595;DHT22;37677;53.254;6.594;2023-03-23T17:26:20;13.00;99.90
51595;DHT22;37677;53.254;6.594;2023-03-23T17:28:46;12.90;99.90
51595;DHT22;37677;53.254;6.594;2023-03-23T17:31:11;12.80;99.90
51595;DHT22;37677;53.254;6.594;2023-03-23T17:33:37;12.80;99.90
51595;DHT22;37677;53.254;6.594;2023-03-23T17:36:03;12.90;99.90
51595;DHT22;37677;53.254;6.594;2023-03-23T17:38:29;12.80;1.00
51595;DHT22;37677;53.254;6.594;2023-03-23T17:40:57;12.70;1.00
51595;DHT22;37677;53.254;6.594;2023-03-23T17:43:22;12.70;99.90
51595;DHT22;37677;53.254;6.594;2023-03-23T17:45:48;12.60;1.00
51595;DHT22;37677;53.254;6.594;2023-03-23T17:48:14;12.80;1.00
51595;DHT22;37677;53.254;6.594;2023-03-23T17:50:39;12.60;1.00
51595;DHT22;37677;53.254;6.594;2023-03-23T17:53:05;12.60;1.00
51595;DHT22;37677;53.254;6.594;2023-03-23T17:55:31;12.60;1.00
51595;DHT22;37677;53.254;6.594;2023-03-23T17:57:56;12.50;24.50
51595;DHT22;37677;53.254;6.594;2023-03-23T18:00:22;12.50;41.30
51595;DHT22;37677;53.254;6.594;2023-03-23T18:02:48;12.50;99.90
51595;DHT22;37677;53.254;6.594;2023-03-23T18:05:13;12.50;72.20
51595;DHT22;37677;53.254;6.594;2023-03-23T18:07:39;12.50;77.10
51595;DHT22;37677;53.254;6.594;2023-03-23T18:10:05;12.50;96.40
51595;DHT22;37677;53.254;6.594;2023-03-23T18:12:38;12.40;99.90
51595;DHT22;37677;53.254;6.594;2023-03-23T18:15:04;12.40;99.90
51595;DHT22;37677;53.254;6.594;2023-03-23T18:17:30;12.40;99.90
51595;DHT22;37677;53.254;6.594;2023-03-23T18:19:56;12.60;99.90
51595;DHT22;37677;53.254;6.594;2023-03-23T18:22:22;12.30;99.90
51595;DHT22;37677;53.254;6.594;2023-03-23T18:24:48;12.30;99.90